sensor_id;sensor_type;location;lat;lon;timestamp;pressure;altitude;pressure_sealevel;temperature;humidity
8575;BME280;4325;42.520;27.448;2023-02-17T00:02:05;102138.59;;;3.12;98.91
8575;BME280;4325;42.520;27.448;2023-02-17T00:04:32;102146.44;;;3.22;98.75
8575;BME280;4325;42.520;27.448;2023-02-17T00:07:00;102131.75;;;3.31;98.78
8575;BME280;4325;42.520;27.448;2023-02-17T00:09:26;102131.00;;;3.37;98.23
8575;BME280;4325;42.520;27.448;2023-02-17T00:11:53;102134.34;;;3.39;98.13
8575;BME280;4325;42.520;27.448;2023-02-17T00:14:20;102130.25;;;3.43;98.23
8575;BME280;4325;42.520;27.448;2023-02-17T00:16:47;102133.19;;;3.48;98.14
8575;BME280;4325;42.520;27.448;2023-02-17T00:19:15;102122.38;;;3.48;98.94
8575;BME280;4325;42.520;27.448;2023-02-17T00:21:52;102118.66;;;3.49;99.66
8575;BME280;4325;42.520;27.448;2023-02-17T00:24:19;102108.03;;;3.48;100.00
8575;BME280;4325;42.520;27.448;2023-02-17T00:26:46;102118.00;;;3.47;100.00
8575;BME280;4325;42.520;27.448;2023-02-17T00:29:13;102116.72;;;3.43;100.00
8575;BME280;4325;42.520;27.448;2023-02-17T00:31:40;102107.38;;;3.31;100.00
8575;BME280;4325;42.520;27.448;2023-02-17T00:34:07;102116.19;;;3.33;100.00
8575;BME280;4325;42.520;27.448;2023-02-17T00:36:35;102116.19;;;3.33;100.00
8575;BME280;4325;42.520;27.448;2023-02-17T00:39:03;102107.78;;;3.28;100.00
8575;BME280;4325;42.520;27.448;2023-02-17T00:41:31;102114.88;;;3.29;100.00
8575;BME280;4325;42.520;27.448;2023-02-17T00:43:58;102105.34;;;3.33;100.00
8575;BME280;4325;42.520;27.448;2023-02-17T00:46:25;102106.00;;;3.35;100.00
8575;BME280;4325;42.520;27.448;2023-02-17T00:48:52;102099.75;;;3.34;100.00
8575;BME280;4325;42.520;27.448;2023-02-17T00:51:20;102084.06;;;3.30;100.00
8575;BME280;4325;42.520;27.448;2023-02-17T00:53:48;102094.38;;;3.41;100.00
8575;BME280;4325;42.520;27.448;2023-02-17T00:56:15;102077.50;;;3.39;100.00
8575;BME280;4325;42.520;27.448;2023-02-17T00:58:42;102082.53;;;3.42;100.00
8575;BME280;4325;42.520;27.448;2023-02-17T01:01:11;102078.41;;;3.46;100.00
8575;BME280;4325;42.520;27.448;2023-02-17T01:03:37;102064.22;;;3.44;100.00
8575;BME280;4325;42.520;27.448;2023-02-17T01:06:08;102076.06;;;3.58;100.00
8575;BME280;4325;42.520;27.448;2023-02-17T01:08:35;102065.44;;;3.63;100.00
8575;BME280;4325;42.520;27.448;2023-02-17T01:11:04;102063.84;;;3.68;100.00
8575;BME280;4325;42.520;27.448;2023-02-17T01:13:31;102052.63;;;3.71;100.00
8575;BME280;4325;42.520;27.448;2023-02-17T01:15:58;102054.97;;;3.74;100.00
8575;BME280;4325;42.520;27.448;2023-02-17T01:18:25;102051.78;;;3.71;100.00
8575;BME280;4325;42.520;27.448;2023-02-17T01:20:52;102049.91;;;3.71;100.00
8575;BME280;4325;42.520;27.448;2023-02-17T01:23:19;102051.09;;;3.62;100.00
8575;BME280;4325;42.520;27.448;2023-02-17T01:25:46;102039.75;;;3.52;100.00
8575;BME280;4325;42.520;27.448;2023-02-17T01:28:18;102040.13;;;3.49;100.00
8575;BME280;4325;42.520;27.448;2023-02-17T01:30:46;102032.38;;;3.46;100.00
8575;BME280;4325;42.520;27.448;2023-02-17T01:33:13;102030.31;;;3.48;100.00
8575;BME280;4325;42.520;27.448;2023-02-17T01:35:40;102021.38;;;3.48;100.00
8575;BME280;4325;42.520;27.448;2023-02-17T01:38:06;102023.50;;;3.52;100.00
8575;BME280;4325;42.520;27.448;2023-02-17T01:40:33;102025.16;;;3.53;100.00
8575;BME280;4325;42.520;27.448;2023-02-17T01:43:01;102023.56;;;3.59;100.00
8575;BME280;4325;42.520;27.448;2023-02-17T01:45:34;102030.31;;;3.69;100.00
8575;BME280;4325;42.520;27.448;2023-02-17T01:48:05;102025.81;;;3.76;100.00
8575;BME280;4325;42.520;27.448;2023-02-17T01:50:36;102022.97;;;3.84;100.00
8575;BME280;4325;42.520;27.448;2023-02-17T01:53:06;102024.66;;;3.92;100.00
8575;BME280;4325;42.520;27.448;2023-02-17T01:55:36;102031.81;;;3.99;100.00
8575;BME280;4325;42.520;27.448;2023-02-17T01:58:06;102023.50;;;4.01;100.00
8575;BME280;4325;42.520;27.448;2023-02-17T02:00:35;102016.84;;;4.04;100.00
8575;BME280;4325;42.520;27.448;2023-02-17T02:03:06;101996.53;;;3.93;100.00
8575;BME280;4325;42.520;27.448;2023-02-17T02:05:35;102010.53;;;3.96;100.00
8575;BME280;4325;42.520;27.448;2023-02-17T02:08:04;102003.22;;;3.97;100.00
8575;BME280;4325;42.520;27.448;2023-02-17T02:10:31;102003.44;;;3.95;100.00
8575;BME280;4325;42.520;27.448;2023-02-17T02:12:58;102003.44;;;3.95;100.00
8575;BME280;4325;42.520;27.448;2023-02-17T02:15:30;102001.38;;;3.97;100.00
8575;BME280;4325;42.520;27.448;2023-02-17T02:18:21;101991.97;;;3.93;100.00
8575;BME280;4325;42.520;27.448;2023-02-17T02:21:12;101994.69;;;3.93;100.00
8575;BME280;4325;42.520;27.448;2023-02-17T02:24:02;101991.75;;;3.95;100.00
8575;BME280;4325;42.520;27.448;2023-02-17T02:27:14;101989.69;;;3.97;100.00
8575;BME280;4325;42.520;27.448;2023-02-17T02:30:02;101987.03;;;4.04;100.00
8575;BME280;4325;42.520;27.448;2023-02-17T02:32:57;101987.66;;;4.06;100.00
8575;BME280;4325;42.520;27.448;2023-02-17T02:35:31;101998.13;;;4.09;100.00
8575;BME280;4325;42.520;27.448;2023-02-17T02:38:05;101990.63;;;4.11;100.00
8575;BME280;4325;42.520;27.448;2023-02-17T02:40:40;102001.06;;;4.14;100.00
8575;BME280;4325;42.520;27.448;2023-02-17T02:43:08;101976.38;;;4.02;100.00
8575;BME280;4325;42.520;27.448;2023-02-17T02:45:35;101993.72;;;4.08;100.00
8575;BME280;4325;42.520;27.448;2023-02-17T02:48:04;101993.72;;;4.08;100.00
8575;BME280;4325;42.520;27.448;2023-02-17T02:50:48;101985.97;;;4.05;100.00
8575;BME280;4325;42.520;27.448;2023-02-17T02:53:40;101977.44;;;4.01;100.00
8575;BME280;4325;42.520;27.448;2023-02-17T02:56:15;101988.31;;;4.08;100.00
8575;BME280;4325;42.520;27.448;2023-02-17T02:58:48;101992.03;;;4.07;100.00
8575;BME280;4325;42.520;27.448;2023-02-17T03:01:28;101991.00;;;4.08;100.00
8575;BME280;4325;42.520;27.448;2023-02-17T03:04:06;101995.16;;;4.04;100.00
8575;BME280;4325;42.520;27.448;2023-02-17T03:06:38;101993.88;;;3.99;100.00
8575;BME280;4325;42.520;27.448;2023-02-17T03:09:10;101990.53;;;3.97;100.00
8575;BME280;4325;42.520;27.448;2023-02-17T03:11:37;101994.28;;;3.96;100.00
8575;BME280;4325;42.520;27.448;2023-02-17T03:14:07;101992.59;;;3.95;100.00
8575;BME280;4325;42.520;27.448;2023-02-17T03:16:35;101994.69;;;3.93;100.00
8575;BME280;4325;42.520;27.448;2023-02-17T03:19:04;101997.13;;;3.88;100.00
8575;BME280;4325;42.520;27.448;2023-02-17T03:21:35;101988.75;;;3.83;100.00
8575;BME280;4325;42.520;27.448;2023-02-17T03:24:04;101997.09;;;3.82;100.00
8575;BME280;4325;42.520;27.448;2023-02-17T03:26:31;102000.38;;;3.77;100.00
8575;BME280;4325;42.520;27.448;2023-02-17T03:28:58;101996.19;;;3.75;100.00
8575;BME280;4325;42.520;27.448;2023-02-17T03:31:25;101992.03;;;3.72;100.00
8575;BME280;4325;42.520;27.448;2023-02-17T03:33:52;101995.75;;;3.71;100.00
8575;BME280;4325;42.520;27.448;2023-02-17T03:36:20;101999.47;;;3.70;100.00
8575;BME280;4325;42.520;27.448;2023-02-17T03:38:47;101997.63;;;3.71;100.00
8575;BME280;4325;42.520;27.448;2023-02-17T03:41:14;102000.72;;;3.68;100.00
8575;BME280;4325;42.520;27.448;2023-02-17T03:43:41;101990.22;;;3.58;100.00
8575;BME280;4325;42.520;27.448;2023-02-17T03:46:10;102004.81;;;3.57;100.00
8575;BME280;4325;42.520;27.448;2023-02-17T03:48:37;101997.69;;;3.56;100.00
8575;BME280;4325;42.520;27.448;2023-02-17T03:51:12;101994.94;;;3.50;100.00
8575;BME280;4325;42.520;27.448;2023-02-17T03:53:41;102002.22;;;3.49;100.00
8575;BME280;4325;42.520;27.448;2023-02-17T03:56:09;102004.47;;;3.46;100.00
8575;BME280;4325;42.520;27.448;2023-02-17T03:58:36;102002.16;;;3.43;100.00
8575;BME280;4325;42.520;27.448;2023-02-17T04:01:04;101997.97;;;3.40;100.00
8575;BME280;4325;42.520;27.448;2023-02-17T04:03:31;101996.94;;;3.41;100.00
8575;BME280;4325;42.520;27.448;2023-02-17T04:05:58;102003.06;;;3.50;100.00
8575;BME280;4325;42.520;27.448;2023-02-17T04:08:25;102002.22;;;3.49;100.00
8575;BME280;4325;42.520;27.448;2023-02-17T04:10:55;102009.72;;;3.47;100.00
8575;BME280;4325;42.520;27.448;2023-02-17T04:13:22;102005.56;;;3.51;100.00
8575;BME280;4325;42.520;27.448;2023-02-17T04:15:50;102003.25;;;3.48;100.00
8575;BME280;4325;42.520;27.448;2023-02-17T04:18:18;102001.59;;;3.47;100.00
8575;BME280;4325;42.520;27.448;2023-02-17T04:20:47;102002.59;;;3.46;100.00
8575;BME280;4325;42.520;27.448;2023-02-17T04:23:14;101995.06;;;3.42;100.00
8575;BME280;4325;42.520;27.448;2023-02-17T04:25:41;102005.47;;;3.38;100.00
8575;BME280;4325;42.520;27.448;2023-02-17T04:28:10;102002.50;;;3.33;100.00
8575;BME280;4325;42.520;27.448;2023-02-17T04:30:37;102014.91;;;3.27;100.00
8575;BME280;4325;42.520;27.448;2023-02-17T04:33:04;102009.34;;;3.14;100.00
8575;BME280;4325;42.520;27.448;2023-02-17T04:35:31;102005.94;;;3.06;100.00
8575;BME280;4325;42.520;27.448;2023-02-17T04:37:58;102008.75;;;2.98;100.00
8575;BME280;4325;42.520;27.448;2023-02-17T04:40:25;102009.06;;;2.88;100.00
8575;BME280;4325;42.520;27.448;2023-02-17T04:42:51;102014.03;;;2.85;100.00
8575;BME280;4325;42.520;27.448;2023-02-17T04:45:19;102011.88;;;2.80;100.00
8575;BME280;4325;42.520;27.448;2023-02-17T04:47:46;102013.28;;;2.76;100.00
8575;BME280;4325;42.520;27.448;2023-02-17T04:50:13;102008.38;;;2.65;100.00
8575;BME280;4325;42.520;27.448;2023-02-17T04:52:40;102016.41;;;2.58;100.00
8575;BME280;4325;42.520;27.448;2023-02-17T04:55:07;102013.25;;;2.55;100.00
8575;BME280;4325;42.520;27.448;2023-02-17T04:57:34;102015.75;;;2.56;100.00
8575;BME280;4325;42.520;27.448;2023-02-17T05:00:02;102015.75;;;2.56;100.00
8575;BME280;4325;42.520;27.448;2023-02-17T05:02:31;102011.19;;;2.57;100.00
8575;BME280;4325;42.520;27.448;2023-02-17T05:04:57;102007.00;;;2.54;100.00
8575;BME280;4325;42.520;27.448;2023-02-17T05:07:24;102010.34;;;2.56;100.00
8575;BME280;4325;42.520;27.448;2023-02-17T05:09:51;102017.81;;;2.54;100.00
8575;BME280;4325;42.520;27.448;2023-02-17T05:12:18;102012.59;;;2.53;100.00
8575;BME280;4325;42.520;27.448;2023-02-17T05:14:45;102005.31;;;2.53;100.00
8575;BME280;4325;42.520;27.448;2023-02-17T05:17:12;102018.19;;;2.51;100.00
8575;BME280;4325;42.520;27.448;2023-02-17T05:19:40;102012.31;;;2.48;100.00
8575;BME280;4325;42.520;27.448;2023-02-17T05:22:07;102016.53;;;2.50;100.00
8575;BME280;4325;42.520;27.448;2023-02-17T05:24:34;102017.44;;;2.57;100.00
8575;BME280;4325;42.520;27.448;2023-02-17T05:27:01;102023.00;;;2.56;100.00
8575;BME280;4325;42.520;27.448;2023-02-17T05:29:27;102019.88;;;2.52;100.00
8575;BME280;4325;42.520;27.448;2023-02-17T05:31:54;102020.78;;;2.59;100.00
8575;BME280;4325;42.520;27.448;2023-02-17T05:34:21;102028.13;;;2.65;100.00
8575;BME280;4325;42.520;27.448;2023-02-17T05:36:49;102027.84;;;2.75;100.00
8575;BME280;4325;42.520;27.448;2023-02-17T05:39:16;102029.59;;;2.83;100.00
8575;BME280;4325;42.520;27.448;2023-02-17T05:41:43;102025.78;;;2.92;100.00
8575;BME280;4325;42.520;27.448;2023-02-17T05:44:10;102026.69;;;2.99;100.00
8575;BME280;4325;42.520;27.448;2023-02-17T05:46:36;102031.84;;;3.15;100.00
8575;BME280;4325;42.520;27.448;2023-02-17T05:49:03;102031.16;;;3.27;100.00
8575;BME280;4325;42.520;27.448;2023-02-17T05:51:30;102035.88;;;3.40;100.00
8575;BME280;4325;42.520;27.448;2023-02-17T05:53:58;102025.81;;;3.55;100.00
8575;BME280;4325;42.520;27.448;2023-02-17T05:56:25;102031.56;;;3.67;100.00
8575;BME280;4325;42.520;27.448;2023-02-17T05:58:52;102032.06;;;3.77;100.00
8575;BME280;4325;42.520;27.448;2023-02-17T06:01:19;102046.94;;;3.87;100.00
8575;BME280;4325;42.520;27.448;2023-02-17T06:03:46;102046.78;;;3.95;100.00
8575;BME280;4325;42.520;27.448;2023-02-17T06:06:13;102032.69;;;4.07;100.00
8575;BME280;4325;42.520;27.448;2023-02-17T06:08:40;102029.44;;;4.18;100.00
8575;BME280;4325;42.520;27.448;2023-02-17T06:11:08;102036.63;;;4.32;100.00
8575;BME280;4325;42.520;27.448;2023-02-17T06:13:35;102040.44;;;4.44;100.00
8575;BME280;4325;42.520;27.448;2023-02-17T06:16:02;102041.78;;;4.54;100.00
8575;BME280;4325;42.520;27.448;2023-02-17T06:18:29;102053.09;;;4.64;100.00
8575;BME280;4325;42.520;27.448;2023-02-17T06:20:56;102048.13;;;4.75;100.00
8575;BME280;4325;42.520;27.448;2023-02-17T06:23:24;102044.00;;;4.85;100.00
8575;BME280;4325;42.520;27.448;2023-02-17T06:25:52;102049.25;;;4.93;100.00
8575;BME280;4325;42.520;27.448;2023-02-17T06:28:20;102049.72;;;5.03;100.00
8575;BME280;4325;42.520;27.448;2023-02-17T06:30:47;102049.53;;;5.11;100.00
8575;BME280;4325;42.520;27.448;2023-02-17T06:33:14;102049.34;;;5.19;100.00
8575;BME280;4325;42.520;27.448;2023-02-17T06:35:41;102050.66;;;5.30;100.00
8575;BME280;4325;42.520;27.448;2023-02-17T06:38:08;102046.06;;;5.37;100.00
8575;BME280;4325;42.520;27.448;2023-02-17T06:40:35;102054.84;;;5.46;100.00
8575;BME280;4325;42.520;27.448;2023-02-17T06:43:02;102053.81;;;5.53;100.00
8575;BME280;4325;42.520;27.448;2023-02-17T06:45:30;102058.88;;;5.69;100.00
8575;BME280;4325;42.520;27.448;2023-02-17T06:47:57;102058.69;;;5.97;100.00
8575;BME280;4325;42.520;27.448;2023-02-17T06:50:24;102053.31;;;6.74;99.70
8575;BME280;4325;42.520;27.448;2023-02-17T06:52:52;102039.31;;;7.53;94.65
8575;BME280;4325;42.520;27.448;2023-02-17T06:55:19;102041.69;;;8.48;87.13
8575;BME280;4325;42.520;27.448;2023-02-17T06:57:45;102045.81;;;9.23;80.37
8575;BME280;4325;42.520;27.448;2023-02-17T07:00:13;102049.44;;;10.41;72.92
8575;BME280;4325;42.520;27.448;2023-02-17T07:02:41;102031.31;;;11.14;65.11
8575;BME280;4325;42.520;27.448;2023-02-17T07:05:08;102041.56;;;11.92;60.54
8575;BME280;4325;42.520;27.448;2023-02-17T07:07:35;102036.25;;;12.57;56.47
8575;BME280;4325;42.520;27.448;2023-02-17T07:10:02;102030.00;;;13.27;54.12
8575;BME280;4325;42.520;27.448;2023-02-17T07:12:29;102028.06;;;13.05;52.91
8575;BME280;4325;42.520;27.448;2023-02-17T07:14:56;102036.59;;;13.26;52.54
8575;BME280;4325;42.520;27.448;2023-02-17T07:17:23;102036.31;;;14.12;50.82
8575;BME280;4325;42.520;27.448;2023-02-17T07:19:51;102040.31;;;15.25;47.10
8575;BME280;4325;42.520;27.448;2023-02-17T07:22:18;102026.31;;;15.47;46.08
8575;BME280;4325;42.520;27.448;2023-02-17T07:24:45;102041.41;;;15.24;45.81
8575;BME280;4325;42.520;27.448;2023-02-17T07:27:13;102033.41;;;15.23;46.36
8575;BME280;4325;42.520;27.448;2023-02-17T07:29:40;102035.69;;;14.79;46.82
8575;BME280;4325;42.520;27.448;2023-02-17T07:32:07;102033.09;;;14.57;47.37
8575;BME280;4325;42.520;27.448;2023-02-17T07:34:33;102027.81;;;14.50;47.96
8575;BME280;4325;42.520;27.448;2023-02-17T07:37:02;102019.31;;;15.19;46.81
8575;BME280;4325;42.520;27.448;2023-02-17T07:39:29;102008.94;;;16.32;43.43
8575;BME280;4325;42.520;27.448;2023-02-17T07:41:55;102016.50;;;17.93;40.93
8575;BME280;4325;42.520;27.448;2023-02-17T07:44:25;102014.53;;;17.94;40.01
8575;BME280;4325;42.520;27.448;2023-02-17T07:46:53;102012.16;;;17.77;40.12
8575;BME280;4325;42.520;27.448;2023-02-17T07:49:19;102018.97;;;17.51;40.70
8575;BME280;4325;42.520;27.448;2023-02-17T07:51:46;102019.53;;;17.92;40.04
8575;BME280;4325;42.520;27.448;2023-02-17T07:54:14;102018.63;;;17.67;40.36
8575;BME280;4325;42.520;27.448;2023-02-17T07:56:41;102024.53;;;17.56;40.56
8575;BME280;4325;42.520;27.448;2023-02-17T07:59:08;102022.31;;;17.53;40.53
8575;BME280;4325;42.520;27.448;2023-02-17T08:01:35;102023.03;;;18.07;39.94
8575;BME280;4325;42.520;27.448;2023-02-17T08:04:02;102025.66;;;18.98;38.12
8575;BME280;4325;42.520;27.448;2023-02-17T08:06:30;102018.03;;;19.51;37.60
8575;BME280;4325;42.520;27.448;2023-02-17T08:08:56;102014.41;;;19.69;36.62
8575;BME280;4325;42.520;27.448;2023-02-17T08:11:43;102010.06;;;19.45;37.03
8575;BME280;4325;42.520;27.448;2023-02-17T08:14:29;102014.53;;;18.56;38.30
8575;BME280;4325;42.520;27.448;2023-02-17T08:16:56;102005.91;;;17.66;40.27
8575;BME280;4325;42.520;27.448;2023-02-17T08:19:23;102001.88;;;17.44;40.99
8575;BME280;4325;42.520;27.448;2023-02-17T08:21:51;102009.59;;;18.19;40.41
8575;BME280;4325;42.520;27.448;2023-02-17T08:24:18;102005.13;;;19.18;38.66
8575;BME280;4325;42.520;27.448;2023-02-17T08:26:47;102010.75;;;18.47;39.23
8575;BME280;4325;42.520;27.448;2023-02-17T08:29:14;102012.25;;;19.99;37.21
8575;BME280;4325;42.520;27.448;2023-02-17T08:31:41;102015.03;;;20.90;35.04
8575;BME280;4325;42.520;27.448;2023-02-17T08:34:10;102006.16;;;20.61;35.07
8575;BME280;4325;42.520;27.448;2023-02-17T08:36:37;102005.47;;;20.37;35.18
8575;BME280;4325;42.520;27.448;2023-02-17T08:39:05;101990.69;;;20.82;34.89
8575;BME280;4325;42.520;27.448;2023-02-17T08:41:37;101998.19;;;20.41;35.16
8575;BME280;4325;42.520;27.448;2023-02-17T08:44:08;101997.69;;;20.39;35.35
8575;BME280;4325;42.520;27.448;2023-02-17T08:46:36;102010.78;;;20.52;35.30
8575;BME280;4325;42.520;27.448;2023-02-17T08:49:04;101998.53;;;19.14;37.08
8575;BME280;4325;42.520;27.448;2023-02-17T08:51:31;101993.38;;;19.26;37.20
8575;BME280;4325;42.520;27.448;2023-02-17T08:53:59;101996.78;;;19.60;36.55
8575;BME280;4325;42.520;27.448;2023-02-17T08:56:27;101989.63;;;20.24;35.86
8575;BME280;4325;42.520;27.448;2023-02-17T08:58:54;101996.91;;;19.88;35.93
8575;BME280;4325;42.520;27.448;2023-02-17T09:01:22;101979.16;;;19.84;35.82
8575;BME280;4325;42.520;27.448;2023-02-17T09:03:51;101988.50;;;20.06;35.60
8575;BME280;4325;42.520;27.448;2023-02-17T09:06:19;101979.91;;;20.21;35.14
8575;BME280;4325;42.520;27.448;2023-02-17T09:08:46;101984.81;;;20.11;35.50
8575;BME280;4325;42.520;27.448;2023-02-17T09:11:14;101973.38;;;20.85;34.90
8575;BME280;4325;42.520;27.448;2023-02-17T09:13:42;101982.91;;;22.14;33.25
8575;BME280;4325;42.520;27.448;2023-02-17T09:16:08;101966.69;;;21.36;33.92
8575;BME280;4325;42.520;27.448;2023-02-17T09:18:37;101975.50;;;22.88;31.26
8575;BME280;4325;42.520;27.448;2023-02-17T09:21:05;101974.31;;;23.88;29.90
8575;BME280;4325;42.520;27.448;2023-02-17T09:23:32;101972.63;;;24.04;29.00
8575;BME280;4325;42.520;27.448;2023-02-17T09:26:00;101974.97;;;23.77;28.88
8575;BME280;4325;42.520;27.448;2023-02-17T09:28:29;101970.81;;;24.63;28.29
8575;BME280;4325;42.520;27.448;2023-02-17T09:30:56;101961.09;;;25.81;26.67
8575;BME280;4325;42.520;27.448;2023-02-17T09:33:23;101956.72;;;26.49;25.65
8575;BME280;4325;42.520;27.448;2023-02-17T09:35:51;101952.13;;;27.41;24.81
8575;BME280;4325;42.520;27.448;2023-02-17T09:38:18;101944.91;;;26.44;25.34
8575;BME280;4325;42.520;27.448;2023-02-17T09:40:47;101936.59;;;26.02;25.89
8575;BME280;4325;42.520;27.448;2023-02-17T09:43:16;101944.63;;;26.12;25.27
8575;BME280;4325;42.520;27.448;2023-02-17T09:45:47;101931.75;;;28.16;23.58
8575;BME280;4325;42.520;27.448;2023-02-17T09:48:17;101923.03;;;27.37;23.78
8575;BME280;4325;42.520;27.448;2023-02-17T09:50:54;101939.91;;;26.85;24.50
8575;BME280;4325;42.520;27.448;2023-02-17T09:53:24;101941.19;;;26.76;24.72
8575;BME280;4325;42.520;27.448;2023-02-17T09:55:56;101921.38;;;26.84;24.33
8575;BME280;4325;42.520;27.448;2023-02-17T09:58:27;101917.88;;;26.63;24.39
8575;BME280;4325;42.520;27.448;2023-02-17T10:01:00;101915.75;;;27.36;23.26
8575;BME280;4325;42.520;27.448;2023-02-17T10:03:31;101916.59;;;24.30;25.88
8575;BME280;4325;42.520;27.448;2023-02-17T10:06:08;101914.09;;;23.82;26.64
8575;BME280;4325;42.520;27.448;2023-02-17T10:08:41;101894.97;;;24.68;25.93
8575;BME280;4325;42.520;27.448;2023-02-17T10:11:17;101895.03;;;26.41;24.14
8575;BME280;4325;42.520;27.448;2023-02-17T10:13:47;101888.38;;;27.89;22.55
8575;BME280;4325;42.520;27.448;2023-02-17T10:16:21;101883.63;;;28.55;21.89
8575;BME280;4325;42.520;27.448;2023-02-17T10:18:53;101878.31;;;29.01;21.58
8575;BME280;4325;42.520;27.448;2023-02-17T10:21:26;101883.72;;;28.74;21.82
8575;BME280;4325;42.520;27.448;2023-02-17T10:23:55;101883.31;;;28.10;22.19
8575;BME280;4325;42.520;27.448;2023-02-17T10:26:30;101886.38;;;26.46;23.84
8575;BME280;4325;42.520;27.448;2023-02-17T10:29:05;101881.72;;;25.81;24.24
8575;BME280;4325;42.520;27.448;2023-02-17T10:31:41;101893.56;;;25.98;24.50
8575;BME280;4325;42.520;27.448;2023-02-17T10:34:14;101873.56;;;24.43;26.19
8575;BME280;4325;42.520;27.448;2023-02-17T10:36:55;101872.50;;;25.92;25.28
8575;BME280;4325;42.520;27.448;2023-02-17T10:39:32;101867.72;;;27.41;24.03
8575;BME280;4325;42.520;27.448;2023-02-17T10:42:02;101858.25;;;29.82;21.21
8575;BME280;4325;42.520;27.448;2023-02-17T10:44:33;101857.56;;;29.47;21.06
8575;BME280;4325;42.520;27.448;2023-02-17T10:47:03;101871.56;;;30.04;20.41
8575;BME280;4325;42.520;27.448;2023-02-17T10:49:33;101846.56;;;30.52;19.97
8575;BME280;4325;42.520;27.448;2023-02-17T10:52:10;101844.38;;;28.62;20.79
8575;BME280;4325;42.520;27.448;2023-02-17T10:54:41;101843.38;;;28.70;20.98
8575;BME280;4325;42.520;27.448;2023-02-17T10:57:12;101845.22;;;30.23;20.12
8575;BME280;4325;42.520;27.448;2023-02-17T10:59:42;101838.38;;;30.73;19.33
8575;BME280;4325;42.520;27.448;2023-02-17T11:02:18;101833.06;;;29.32;20.16
8575;BME280;4325;42.520;27.448;2023-02-17T11:04:47;101832.28;;;30.45;19.08
8575;BME280;4325;42.520;27.448;2023-02-17T11:07:18;101833.59;;;28.84;19.95
8575;BME280;4325;42.520;27.448;2023-02-17T11:09:51;101824.38;;;30.31;19.38
8575;BME280;4325;42.520;27.448;2023-02-17T11:12:21;101842.56;;;30.08;18.73
8575;BME280;4325;42.520;27.448;2023-02-17T11:14:52;101825.31;;;28.40;19.33
8575;BME280;4325;42.520;27.448;2023-02-17T11:17:25;101827.16;;;26.51;21.03
8575;BME280;4325;42.520;27.448;2023-02-17T11:19:56;101825.44;;;24.70;22.66
8575;BME280;4325;42.520;27.448;2023-02-17T11:22:36;101827.66;;;23.26;24.00
8575;BME280;4325;42.520;27.448;2023-02-17T11:25:17;101832.72;;;24.13;23.63
8575;BME280;4325;42.520;27.448;2023-02-17T11:27:50;101818.88;;;24.46;23.56
8575;BME280;4325;42.520;27.448;2023-02-17T11:30:17;101807.25;;;24.35;23.74
8575;BME280;4325;42.520;27.448;2023-02-17T11:32:45;101817.25;;;25.27;23.04
8575;BME280;4325;42.520;27.448;2023-02-17T11:35:25;101804.78;;;26.78;21.81
8575;BME280;4325;42.520;27.448;2023-02-17T11:38:02;101802.88;;;27.97;20.75
8575;BME280;4325;42.520;27.448;2023-02-17T11:40:31;101788.56;;;28.18;20.59
8575;BME280;4325;42.520;27.448;2023-02-17T11:42:59;101791.34;;;28.33;20.58
8575;BME280;4325;42.520;27.448;2023-02-17T11:45:29;101792.13;;;29.41;19.64
8575;BME280;4325;42.520;27.448;2023-02-17T11:48:10;101800.72;;;30.17;18.79
8575;BME280;4325;42.520;27.448;2023-02-17T11:50:47;101795.19;;;27.35;20.81
8575;BME280;4325;42.520;27.448;2023-02-17T11:53:25;101794.47;;;27.38;20.95
8575;BME280;4325;42.520;27.448;2023-02-17T11:56:05;101787.00;;;27.02;21.57
8575;BME280;4325;42.520;27.448;2023-02-17T11:58:46;101786.00;;;27.81;20.64
8575;BME280;4325;42.520;27.448;2023-02-17T12:01:29;101780.28;;;29.55;19.22
8575;BME280;4325;42.520;27.448;2023-02-17T12:04:20;101783.22;;;31.53;17.45
8575;BME280;4325;42.520;27.448;2023-02-17T12:07:02;101769.00;;;31.12;17.43
8575;BME280;4325;42.520;27.448;2023-02-17T12:09:44;101769.69;;;31.76;17.29
8575;BME280;4325;42.520;27.448;2023-02-17T12:12:20;101757.44;;;32.74;16.18
8575;BME280;4325;42.520;27.448;2023-02-17T12:15:11;101757.44;;;32.09;16.83
8575;BME280;4325;42.520;27.448;2023-02-17T12:17:45;101757.25;;;33.21;16.10
8575;BME280;4325;42.520;27.448;2023-02-17T12:20:30;101760.03;;;31.80;16.94
8575;BME280;4325;42.520;27.448;2023-02-17T12:23:04;101758.63;;;32.04;16.53
8575;BME280;4325;42.520;27.448;2023-02-17T12:25:38;101747.63;;;32.53;16.11
8575;BME280;4325;42.520;27.448;2023-02-17T12:28:26;101753.16;;;32.36;15.87
8575;BME280;4325;42.520;27.448;2023-02-17T12:31:02;101744.03;;;31.21;16.46
8575;BME280;4325;42.520;27.448;2023-02-17T12:33:41;101739.22;;;28.77;18.78
8575;BME280;4325;42.520;27.448;2023-02-17T12:36:14;101744.78;;;29.99;18.40
8575;BME280;4325;42.520;27.448;2023-02-17T12:38:45;101737.13;;;29.77;18.42
8575;BME280;4325;42.520;27.448;2023-02-17T12:41:17;101740.41;;;28.96;18.66
8575;BME280;4325;42.520;27.448;2023-02-17T12:43:48;101738.84;;;28.98;18.83
8575;BME280;4325;42.520;27.448;2023-02-17T12:46:19;101730.03;;;28.61;19.18
8575;BME280;4325;42.520;27.448;2023-02-17T12:48:52;101732.53;;;29.05;19.10
8575;BME280;4325;42.520;27.448;2023-02-17T12:51:22;101719.50;;;29.84;18.42
8575;BME280;4325;42.520;27.448;2023-02-17T12:53:54;101728.03;;;29.42;18.83
8575;BME280;4325;42.520;27.448;2023-02-17T12:56:48;101725.59;;;29.63;18.62
8575;BME280;4325;42.520;27.448;2023-02-17T12:59:21;101707.88;;;30.71;17.58
8575;BME280;4325;42.520;27.448;2023-02-17T13:01:55;101721.44;;;29.57;18.16
8575;BME280;4325;42.520;27.448;2023-02-17T13:04:24;101722.44;;;29.68;17.73
8575;BME280;4325;42.520;27.448;2023-02-17T13:06:57;101718.38;;;29.66;18.04
8575;BME280;4325;42.520;27.448;2023-02-17T13:09:31;101712.16;;;30.91;16.99
8575;BME280;4325;42.520;27.448;2023-02-17T13:12:34;101712.16;;;30.32;17.21
8575;BME280;4325;42.520;27.448;2023-02-17T13:15:05;101716.13;;;29.52;17.28
8575;BME280;4325;42.520;27.448;2023-02-17T13:17:36;101716.16;;;29.33;17.28